sensor_id;sensor_type;location;lat;lon;timestamp;P1;durP1;ratioP1;P2;durP2;ratioP2
19617;SDS011;9956;51.006;13.670;2022-10-18T00:04:32;28.13;;;23.83;;
19617;SDS011;9956;51.006;13.670;2022-10-18T00:09:33;31.23;;;23.52;;
19617;SDS011;9956;51.006;13.670;2022-10-18T00:14:34;26.83;;;22.35;;
19617;SDS011;9956;51.006;13.670;2022-10-18T00:19:34;29.23;;;23.10;;
19617;SDS011;9956;51.006;13.670;2022-10-18T00:24:35;30.15;;;24.88;;
19617;SDS011;9956;51.006;13.670;2022-10-18T00:29:36;27.90;;;22.88;;
19617;SDS011;9956;51.006;13.670;2022-10-18T00:34:37;25.10;;;20.10;;
19617;SDS011;9956;51.006;13.670;2022-10-18T00:39:40;27.17;;;20.02;;
19617;SDS011;9956;51.006;13.670;2022-10-18T00:49:42;23.75;;;17.95;;
19617;SDS011;9956;51.006;13.670;2022-10-18T00:54:46;21.00;;;17.02;;
19617;SDS011;9956;51.006;13.670;2022-10-18T00:59:48;21.98;;;17.08;;
19617;SDS011;9956;51.006;13.670;2022-10-18T01:04:48;19.48;;;16.45;;
19617;SDS011;9956;51.006;13.670;2022-10-18T01:15:24;24.25;;;19.88;;
19617;SDS011;9956;51.006;13.670;2022-10-18T01:25:56;27.75;;;22.02;;
19617;SDS011;9956;51.006;13.670;2022-10-18T01:31:21;29.63;;;22.23;;
19617;SDS011;9956;51.006;13.670;2022-10-18T01:36:31;24.23;;;18.77;;
19617;SDS011;9956;51.006;13.670;2022-10-18T01:41:33;22.95;;;19.20;;
19617;SDS011;9956;51.006;13.670;2022-10-18T01:46:36;21.48;;;17.05;;
19617;SDS011;9956;51.006;13.670;2022-10-18T01:51:37;23.90;;;18.40;;
19617;SDS011;9956;51.006;13.670;2022-10-18T02:06:44;19.80;;;16.70;;
19617;SDS011;9956;51.006;13.670;2022-10-18T02:11:48;20.00;;;16.45;;
19617;SDS011;9956;51.006;13.670;2022-10-18T02:16:51;21.27;;;16.40;;
19617;SDS011;9956;51.006;13.670;2022-10-18T02:21:54;18.65;;;15.80;;
19617;SDS011;9956;51.006;13.670;2022-10-18T02:26:56;17.23;;;14.48;;
19617;SDS011;9956;51.006;13.670;2022-10-18T02:37:29;19.17;;;14.40;;
19617;SDS011;9956;51.006;13.670;2022-10-18T02:42:35;18.30;;;15.13;;
19617;SDS011;9956;51.006;13.670;2022-10-18T02:47:39;18.70;;;14.77;;
19617;SDS011;9956;51.006;13.670;2022-10-18T02:52:40;18.02;;;14.75;;
19617;SDS011;9956;51.006;13.670;2022-10-18T02:57:41;24.83;;;17.13;;
19617;SDS011;9956;51.006;13.670;2022-10-18T03:02:41;18.77;;;16.05;;
19617;SDS011;9956;51.006;13.670;2022-10-18T03:07:42;17.05;;;15.25;;
19617;SDS011;9956;51.006;13.670;2022-10-18T03:12:42;18.88;;;15.30;;
19617;SDS011;9956;51.006;13.670;2022-10-18T03:17:42;23.58;;;16.40;;
19617;SDS011;9956;51.006;13.670;2022-10-18T03:22:43;22.88;;;17.55;;
19617;SDS011;9956;51.006;13.670;2022-10-18T03:27:44;21.45;;;17.23;;
19617;SDS011;9956;51.006;13.670;2022-10-18T03:32:44;23.35;;;17.50;;
19617;SDS011;9956;51.006;13.670;2022-10-18T03:37:45;21.15;;;17.02;;
19617;SDS011;9956;51.006;13.670;2022-10-18T03:42:45;19.95;;;16.83;;
19617;SDS011;9956;51.006;13.670;2022-10-18T03:47:46;18.35;;;15.57;;
19617;SDS011;9956;51.006;13.670;2022-10-18T03:52:46;19.25;;;15.85;;
19617;SDS011;9956;51.006;13.670;2022-10-18T03:57:47;17.67;;;15.30;;
19617;SDS011;9956;51.006;13.670;2022-10-18T04:02:47;20.20;;;15.90;;
19617;SDS011;9956;51.006;13.670;2022-10-18T04:07:48;20.08;;;15.75;;
19617;SDS011;9956;51.006;13.670;2022-10-18T04:12:49;20.40;;;16.58;;
19617;SDS011;9956;51.006;13.670;2022-10-18T04:17:50;21.65;;;16.60;;
19617;SDS011;9956;51.006;13.670;2022-10-18T04:22:51;17.58;;;15.65;;
19617;SDS011;9956;51.006;13.670;2022-10-18T04:27:54;19.08;;;16.08;;
19617;SDS011;9956;51.006;13.670;2022-10-18T04:32:55;19.80;;;16.10;;
19617;SDS011;9956;51.006;13.670;2022-10-18T04:37:55;18.48;;;16.25;;
19617;SDS011;9956;51.006;13.670;2022-10-18T04:42:56;17.15;;;15.30;;
19617;SDS011;9956;51.006;13.670;2022-10-18T04:47:56;21.02;;;16.58;;
19617;SDS011;9956;51.006;13.670;2022-10-18T04:52:57;19.85;;;14.50;;
19617;SDS011;9956;51.006;13.670;2022-10-18T04:57:57;16.48;;;14.35;;
19617;SDS011;9956;51.006;13.670;2022-10-18T05:02:58;16.17;;;14.48;;
19617;SDS011;9956;51.006;13.670;2022-10-18T05:07:58;17.20;;;15.40;;
19617;SDS011;9956;51.006;13.670;2022-10-18T05:12:59;17.80;;;15.02;;
19617;SDS011;9956;51.006;13.670;2022-10-18T05:17:59;18.67;;;16.10;;
19617;SDS011;9956;51.006;13.670;2022-10-18T05:23:00;15.95;;;13.63;;
19617;SDS011;9956;51.006;13.670;2022-10-18T05:28:00;16.83;;;14.43;;
19617;SDS011;9956;51.006;13.670;2022-10-18T05:33:01;19.73;;;15.15;;
19617;SDS011;9956;51.006;13.670;2022-10-18T05:38:02;18.98;;;14.55;;
19617;SDS011;9956;51.006;13.670;2022-10-18T05:43:04;19.05;;;15.02;;
19617;SDS011;9956;51.006;13.670;2022-10-18T05:48:05;17.63;;;14.15;;
19617;SDS011;9956;51.006;13.670;2022-10-18T05:53:10;19.48;;;16.58;;
19617;SDS011;9956;51.006;13.670;2022-10-18T05:58:10;21.35;;;16.33;;
19617;SDS011;9956;51.006;13.670;2022-10-18T06:03:11;17.35;;;15.18;;
19617;SDS011;9956;51.006;13.670;2022-10-18T06:08:11;15.40;;;12.95;;
19617;SDS011;9956;51.006;13.670;2022-10-18T06:13:12;15.88;;;14.25;;
19617;SDS011;9956;51.006;13.670;2022-10-18T06:18:13;22.80;;;18.05;;
19617;SDS011;9956;51.006;13.670;2022-10-18T06:23:13;19.67;;;15.82;;
19617;SDS011;9956;51.006;13.670;2022-10-18T06:28:14;18.67;;;16.05;;
19617;SDS011;9956;51.006;13.670;2022-10-18T06:33:14;18.45;;;15.32;;
19617;SDS011;9956;51.006;13.670;2022-10-18T06:38:15;20.35;;;16.02;;
19617;SDS011;9956;51.006;13.670;2022-10-18T06:43:16;21.33;;;18.02;;
19617;SDS011;9956;51.006;13.670;2022-10-18T06:48:17;20.35;;;16.90;;
19617;SDS011;9956;51.006;13.670;2022-10-18T06:53:17;21.17;;;16.10;;
19617;SDS011;9956;51.006;13.670;2022-10-18T06:58:18;19.10;;;16.55;;
19617;SDS011;9956;51.006;13.670;2022-10-18T07:03:18;23.55;;;19.42;;
19617;SDS011;9956;51.006;13.670;2022-10-18T07:08:20;22.85;;;19.67;;
19617;SDS011;9956;51.006;13.670;2022-10-18T07:13:21;21.50;;;18.77;;
19617;SDS011;9956;51.006;13.670;2022-10-18T07:18:22;20.85;;;18.23;;
19617;SDS011;9956;51.006;13.670;2022-10-18T07:23:22;24.60;;;20.75;;
19617;SDS011;9956;51.006;13.670;2022-10-18T07:28:23;22.95;;;19.38;;
19617;SDS011;9956;51.006;13.670;2022-10-18T07:33:25;24.23;;;20.50;;
19617;SDS011;9956;51.006;13.670;2022-10-18T07:38:28;18.27;;;16.40;;
19617;SDS011;9956;51.006;13.670;2022-10-18T07:43:29;24.90;;;18.55;;
19617;SDS011;9956;51.006;13.670;2022-10-18T07:48:29;16.40;;;14.70;;
19617;SDS011;9956;51.006;13.670;2022-10-18T07:53:30;20.73;;;17.75;;
19617;SDS011;9956;51.006;13.670;2022-10-18T07:58:33;17.88;;;16.08;;
19617;SDS011;9956;51.006;13.670;2022-10-18T08:03:35;21.90;;;18.58;;
19617;SDS011;9956;51.006;13.670;2022-10-18T08:08:36;24.10;;;21.48;;
19617;SDS011;9956;51.006;13.670;2022-10-18T08:13:38;22.88;;;19.23;;
19617;SDS011;9956;51.006;13.670;2022-10-18T08:18:39;26.48;;;19.95;;
19617;SDS011;9956;51.006;13.670;2022-10-18T08:23:39;22.15;;;19.48;;
19617;SDS011;9956;51.006;13.670;2022-10-18T08:28:40;18.33;;;16.33;;
19617;SDS011;9956;51.006;13.670;2022-10-18T08:33:40;17.88;;;16.08;;
19617;SDS011;9956;51.006;13.670;2022-10-18T08:38:41;20.55;;;17.42;;
19617;SDS011;9956;51.006;13.670;2022-10-18T08:43:43;19.67;;;17.30;;
19617;SDS011;9956;51.006;13.670;2022-10-18T08:48:47;18.98;;;17.02;;
19617;SDS011;9956;51.006;13.670;2022-10-18T08:53:53;19.00;;;17.15;;
19617;SDS011;9956;51.006;13.670;2022-10-18T08:59:00;22.52;;;20.10;;
19617;SDS011;9956;51.006;13.670;2022-10-18T09:04:19;28.75;;;22.55;;
19617;SDS011;9956;51.006;13.670;2022-10-18T09:15:07;26.95;;;19.88;;
19617;SDS011;9956;51.006;13.670;2022-10-18T09:30:48;21.42;;;18.70;;
19617;SDS011;9956;51.006;13.670;2022-10-18T09:35:55;19.52;;;16.95;;
19617;SDS011;9956;51.006;13.670;2022-10-18T09:41:06;20.25;;;16.27;;
19617;SDS011;9956;51.006;13.670;2022-10-18T09:46:09;19.38;;;17.35;;
19617;SDS011;9956;51.006;13.670;2022-10-18T09:51:12;24.40;;;19.40;;
19617;SDS011;9956;51.006;13.670;2022-10-18T09:56:17;20.45;;;17.42;;
19617;SDS011;9956;51.006;13.670;2022-10-18T10:01:26;19.58;;;17.52;;
19617;SDS011;9956;51.006;13.670;2022-10-18T10:06:29;17.08;;;14.80;;
19617;SDS011;9956;51.006;13.670;2022-10-18T10:11:38;22.33;;;15.95;;
19617;SDS011;9956;51.006;13.670;2022-10-18T10:21:48;17.80;;;16.00;;
19617;SDS011;9956;51.006;13.670;2022-10-18T10:26:55;18.27;;;16.38;;
19617;SDS011;9956;51.006;13.670;2022-10-18T10:32:02;20.00;;;16.85;;
19617;SDS011;9956;51.006;13.670;2022-10-18T10:37:08;23.10;;;19.45;;
19617;SDS011;9956;51.006;13.670;2022-10-18T10:42:20;22.90;;;20.58;;
19617;SDS011;9956;51.006;13.670;2022-10-18T10:47:30;24.83;;;22.23;;
19617;SDS011;9956;51.006;13.670;2022-10-18T10:52:32;27.20;;;24.25;;
19617;SDS011;9956;51.006;13.670;2022-10-18T10:57:32;35.22;;;27.77;;
19617;SDS011;9956;51.006;13.670;2022-10-18T11:02:35;33.10;;;29.58;;
19617;SDS011;9956;51.006;13.670;2022-10-18T11:07:39;30.08;;;27.00;;
19617;SDS011;9956;51.006;13.670;2022-10-18T11:12:48;28.25;;;25.25;;
19617;SDS011;9956;51.006;13.670;2022-10-18T11:23:14;30.30;;;26.98;;
19617;SDS011;9956;51.006;13.670;2022-10-18T12:00:26;40.20;;;26.42;;
19617;SDS011;9956;51.006;13.670;2022-10-18T12:05:31;49.80;;;24.10;;
19617;SDS011;9956;51.006;13.670;2022-10-18T12:10:32;30.95;;;25.58;;
19617;SDS011;9956;51.006;13.670;2022-10-18T12:15:35;23.05;;;13.18;;
19617;SDS011;9956;51.006;13.670;2022-10-18T12:20:38;13.40;;;11.98;;
19617;SDS011;9956;51.006;13.670;2022-10-18T12:25:42;21.67;;;19.48;;
19617;SDS011;9956;51.006;13.670;2022-10-18T12:36:21;8.68;;;6.00;;
19617;SDS011;9956;51.006;13.670;2022-10-18T12:41:47;8.18;;;6.57;;
19617;SDS011;9956;51.006;13.670;2022-10-18T12:46:52;6.88;;;5.00;;
19617;SDS011;9956;51.006;13.670;2022-10-18T12:51:55;6.93;;;4.97;;
19617;SDS011;9956;51.006;13.670;2022-10-18T12:57:02;8.55;;;6.90;;
19617;SDS011;9956;51.006;13.670;2022-10-18T13:33:15;4.75;;;4.13;;
19617;SDS011;9956;51.006;13.670;2022-10-18T13:38:38;6.28;;;5.32;;
19617;SDS011;9956;51.006;13.670;2022-10-18T13:48:53;4.85;;;4.05;;
19617;SDS011;9956;51.006;13.670;2022-10-18T13:54:29;5.78;;;4.30;;
19617;SDS011;9956;51.006;13.670;2022-10-18T13:59:36;4.63;;;3.88;;
19617;SDS011;9956;51.006;13.670;2022-10-18T14:05:04;3.53;;;3.22;;
19617;SDS011;9956;51.006;13.670;2022-10-18T14:10:22;4.07;;;3.03;;
19617;SDS011;9956;51.006;13.670;2022-10-18T14:15:53;3.55;;;2.70;;
19617;SDS011;9956;51.006;13.670;2022-10-18T14:20:59;2.72;;;2.53;;
19617;SDS011;9956;51.006;13.670;2022-10-18T14:26:08;2.70;;;1.90;;
19617;SDS011;9956;51.006;13.670;2022-10-18T14:31:17;2.92;;;2.13;;
19617;SDS011;9956;51.006;13.670;2022-10-18T14:36:30;3.67;;;3.10;;
19617;SDS011;9956;51.006;13.670;2022-10-18T14:41:52;4.70;;;3.10;;
19617;SDS011;9956;51.006;13.670;2022-10-18T14:46:59;4.75;;;4.35;;
19617;SDS011;9956;51.006;13.670;2022-10-18T14:52:09;5.78;;;4.38;;
19617;SDS011;9956;51.006;13.670;2022-10-18T14:57:16;3.78;;;3.05;;
19617;SDS011;9956;51.006;13.670;2022-10-18T15:02:20;3.17;;;2.88;;
19617;SDS011;9956;51.006;13.670;2022-10-18T15:07:38;5.05;;;4.60;;
19617;SDS011;9956;51.006;13.670;2022-10-18T15:12:38;9.38;;;7.90;;
19617;SDS011;9956;51.006;13.670;2022-10-18T15:17:40;7.53;;;6.68;;
19617;SDS011;9956;51.006;13.670;2022-10-18T15:22:41;7.03;;;5.15;;
19617;SDS011;9956;51.006;13.670;2022-10-18T15:27:42;5.50;;;3.80;;
19617;SDS011;9956;51.006;13.670;2022-10-18T15:32:49;3.70;;;3.35;;
19617;SDS011;9956;51.006;13.670;2022-10-18T15:38:13;3.42;;;3.13;;
19617;SDS011;9956;51.006;13.670;2022-10-18T15:48:31;3.40;;;3.10;;
19617;SDS011;9956;51.006;13.670;2022-10-18T15:59:05;6.20;;;5.60;;
19617;SDS011;9956;51.006;13.670;2022-10-18T16:04:21;5.50;;;4.50;;
19617;SDS011;9956;51.006;13.670;2022-10-18T16:09:27;4.22;;;3.53;;
19617;SDS011;9956;51.006;13.670;2022-10-18T16:14:28;11.65;;;8.10;;
19617;SDS011;9956;51.006;13.670;2022-10-18T16:19:29;12.80;;;10.27;;
19617;SDS011;9956;51.006;13.670;2022-10-18T16:24:31;10.10;;;9.00;;
19617;SDS011;9956;51.006;13.670;2022-10-18T16:29:31;10.63;;;9.63;;
19617;SDS011;9956;51.006;13.670;2022-10-18T16:34:32;8.30;;;7.35;;
19617;SDS011;9956;51.006;13.670;2022-10-18T16:39:32;6.63;;;6.03;;
19617;SDS011;9956;51.006;13.670;2022-10-18T16:44:34;7.32;;;6.63;;
19617;SDS011;9956;51.006;13.670;2022-10-18T16:49:34;7.28;;;6.57;;
19617;SDS011;9956;51.006;13.670;2022-10-18T16:54:35;11.07;;;7.97;;
19617;SDS011;9956;51.006;13.670;2022-10-18T16:59:36;7.70;;;6.97;;
19617;SDS011;9956;51.006;13.670;2022-10-18T17:04:36;12.05;;;10.18;;
19617;SDS011;9956;51.006;13.670;2022-10-18T17:09:47;8.27;;;7.47;;
19617;SDS011;9956;51.006;13.670;2022-10-18T17:14:47;12.60;;;9.57;;
19617;SDS011;9956;51.006;13.670;2022-10-18T17:19:48;14.60;;;9.85;;
19617;SDS011;9956;51.006;13.670;2022-10-18T17:24:48;11.55;;;9.07;;
19617;SDS011;9956;51.006;13.670;2022-10-18T17:29:49;10.63;;;9.35;;
19617;SDS011;9956;51.006;13.670;2022-10-18T17:34:49;11.95;;;9.80;;
19617;SDS011;9956;51.006;13.670;2022-10-18T17:39:50;10.63;;;9.57;;
19617;SDS011;9956;51.006;13.670;2022-10-18T17:44:50;10.95;;;9.85;;
19617;SDS011;9956;51.006;13.670;2022-10-18T17:49:51;10.48;;;8.80;;
19617;SDS011;9956;51.006;13.670;2022-10-18T17:54:51;7.43;;;6.70;;
19617;SDS011;9956;51.006;13.670;2022-10-18T17:59:52;9.65;;;8.13;;
19617;SDS011;9956;51.006;13.670;2022-10-18T18:04:54;10.98;;;9.43;;
19617;SDS011;9956;51.006;13.670;2022-10-18T18:09:54;20.45;;;12.38;;
19617;SDS011;9956;51.006;13.670;2022-10-18T18:14:55;13.20;;;10.77;;
19617;SDS011;9956;51.006;13.670;2022-10-18T18:19:55;11.98;;;10.75;;
19617;SDS011;9956;51.006;13.670;2022-10-18T18:24:56;15.80;;;13.57;;
19617;SDS011;9956;51.006;13.670;2022-10-18T18:29:56;17.77;;;13.57;;
19617;SDS011;9956;51.006;13.670;2022-10-18T18:34:57;21.05;;;14.82;;
19617;SDS011;9956;51.006;13.670;2022-10-18T18:39:57;24.67;;;14.63;;
19617;SDS011;9956;51.006;13.670;2022-10-18T18:44:58;12.95;;;11.13;;
19617;SDS011;9956;51.006;13.670;2022-10-18T18:49:59;15.00;;;11.77;;
19617;SDS011;9956;51.006;13.670;2022-10-18T18:54:59;17.08;;;12.25;;
19617;SDS011;9956;51.006;13.670;2022-10-18T19:00:00;12.00;;;10.80;;
19617;SDS011;9956;51.006;13.670;2022-10-18T19:05:01;17.67;;;14.05;;
19617;SDS011;9956;51.006;13.670;2022-10-18T19:10:02;20.80;;;13.48;;
19617;SDS011;9956;51.006;13.670;2022-10-18T19:15:02;22.33;;;15.75;;
19617;SDS011;9956;51.006;13.670;2022-10-18T19:20:04;18.48;;;13.05;;
19617;SDS011;9956;51.006;13.670;2022-10-18T19:25:05;21.52;;;14.90;;
19617;SDS011;9956;51.006;13.670;2022-10-18T19:30:07;15.38;;;11.77;;
19617;SDS011;9956;51.006;13.670;2022-10-18T19:35:10;36.63;;;17.83;;
19617;SDS011;9956;51.006;13.670;2022-10-18T19:40:10;29.17;;;17.30;;
19617;SDS011;9956;51.006;13.670;2022-10-18T19:45:11;32.95;;;18.30;;
19617;SDS011;9956;51.006;13.670;2022-10-18T19:50:12;31.50;;;20.50;;
19617;SDS011;9956;51.006;13.670;2022-10-18T19:55:12;61.95;;;26.15;;
19617;SDS011;9956;51.006;13.670;2022-10-18T20:00:13;63.42;;;24.05;;
19617;SDS011;9956;51.006;13.670;2022-10-18T20:05:14;26.15;;;19.13;;
19617;SDS011;9956;51.006;13.670;2022-10-18T20:10:14;32.85;;;18.27;;
19617;SDS011;9956;51.006;13.670;2022-10-18T20:15:15;40.72;;;21.73;;
19617;SDS011;9956;51.006;13.670;2022-10-18T20:20:15;50.58;;;22.67;;
19617;SDS011;9956;51.006;13.670;2022-10-18T20:25:16;68.18;;;22.85;;
19617;SDS011;9956;51.006;13.670;2022-10-18T20:30:16;43.03;;;20.77;;
19617;SDS011;9956;51.006;13.670;2022-10-18T20:35:17;26.63;;;19.02;;
19617;SDS011;9956;51.006;13.670;2022-10-18T20:40:17;35.80;;;19.63;;
19617;SDS011;9956;51.006;13.670;2022-10-18T20:45:17;60.13;;;25.10;;
19617;SDS011;9956;51.006;13.670;2022-10-18T20:55:44;94.43;;;29.73;;
19617;SDS011;9956;51.006;13.670;2022-10-18T21:00:45;84.10;;;26.58;;
19617;SDS011;9956;51.006;13.670;2022-10-18T21:05:45;66.07;;;27.30;;
19617;SDS011;9956;51.006;13.670;2022-10-18T21:10:46;49.05;;;23.50;;
19617;SDS011;9956;51.006;13.670;2022-10-18T21:15:52;67.07;;;27.08;;
19617;SDS011;9956;51.006;13.670;2022-10-18T21:20:53;49.90;;;21.67;;
19617;SDS011;9956;51.006;13.670;2022-10-18T21:25:54;63.88;;;26.10;;
19617;SDS011;9956;51.006;13.670;2022-10-18T21:30:54;54.60;;;23.20;;
19617;SDS011;9956;51.006;13.670;2022-10-18T21:35:59;53.10;;;24.63;;
19617;SDS011;9956;51.006;13.670;2022-10-18T21:41:00;77.38;;;27.27;;
19617;SDS011;9956;51.006;13.670;2022-10-18T21:46:00;44.47;;;24.13;;
19617;SDS011;9956;51.006;13.670;2022-10-18T21:51:02;51.72;;;24.05;;
19617;SDS011;9956;51.006;13.670;2022-10-18T21:56:07;49.50;;;20.73;;
19617;SDS011;9956;51.006;13.670;2022-10-18T22:01:13;55.97;;;24.80;;
19617;SDS011;9956;51.006;13.670;2022-10-18T22:06:16;57.05;;;26.63;;
19617;SDS011;9956;51.006;13.670;2022-10-18T22:11:17;77.22;;;29.17;;
19617;SDS011;9956;51.006;13.670;2022-10-18T22:16:20;63.38;;;26.73;;
19617;SDS011;9956;51.006;13.670;2022-10-18T22:21:20;128.32;;;37.10;;
19617;SDS011;9956;51.006;13.670;2022-10-18T22:31:29;110.93;;;40.22;;
19617;SDS011;9956;51.006;13.670;2022-10-18T22:36:31;99.57;;;39.88;;
19617;SDS011;9956;51.006;13.670;2022-10-18T22:41:32;69.88;;;35.38;;
19617;SDS011;9956;51.006;13.670;2022-10-18T22:46:34;170.32;;;46.97;;
19617;SDS011;9956;51.006;13.670;2022-10-18T22:51:34;98.93;;;41.13;;
19617;SDS011;9956;51.006;13.670;2022-10-18T22:56:34;129.85;;;44.17;;
19617;SDS011;9956;51.006;13.670;2022-10-18T23:01:35;130.48;;;44.70;;
19617;SDS011;9956;51.006;13.670;2022-10-18T23:06:38;119.85;;;41.17;;
19617;SDS011;9956;51.006;13.670;2022-10-18T23:11:38;91.13;;;39.42;;
19617;SDS011;9956;51.006;13.670;2022-10-18T23:16:39;140.70;;;40.10;;
19617;SDS011;9956;51.006;13.670;2022-10-18T23:21:39;130.63;;;39.67;;
19617;SDS011;9956;51.006;13.670;2022-10-18T23:26:39;145.65;;;41.15;;
19617;SDS011;9956;51.006;13.670;2022-10-18T23:31:40;131.45;;;38.33;;
19617;SDS011;9956;51.006;13.670;2022-10-18T23:36:40;109.00;;;38.85;;
19617;SDS011;9956;51.006;13.670;2022-10-18T23:41:40;95.32;;;38.22;;
19617;SDS011;9956;51.006;13.670;2022-10-18T23:46:41;100.85;;;37.72;;
19617;SDS011;9956;51.006;13.670;2022-10-18T23:51:41;68.70;;;33.83;;
19617;SDS011;9956;51.006;13.670;2022-10-18T23:56:42;99.82;;;35.58;;
